Terminal Aerodrome Forecast
Issued by NWS

Home | Current Version | Previous Version | Text Only | Print | Product List | Glossary On
Versions: 1 2 3 4 5 6 7 8 9 10 11 12 13 14 15 16 17 18 19 20 21 22 23
000
FTUS43 KGRB 170703 AAA
TAFATW
TAF AMD
KATW 170703Z 1707/1806 05006KT P6SM OVC018
     FM171000 07006KT P6SM OVC015
     FM171600 08005KT P6SM OVC018
     FM172300 VRB03KT P6SM OVC010=

USA.gov is the U.S. government's official web portal to all federal, state and local government web resources and services.